Time;durP1;ratioP1;P1;durP2;ratioP2;P2;SDS_P1;SDS_P2;PMS_P1;PMS_P2;Temp;Humidity;BMP_temperature;BMP_pressure;BME280_temperature;BME280_humidity;BME280_pressure;Samples;Min_cycle;Max_cycle;Signal;HPM_P1;HPM_P2
2022/04/29 00:01:14;;;;;;;;;24.25;24.25;;;;;;;;5053032;28;45629;-70
2022/04/29 00:03:39;;;;;;;;;23.50;23.50;;;;;;;;5035548;28;45533;-70
2022/04/29 00:06:04;;;;;;;;;31.00;24.50;;;;;;;;5037238;28;45535;-70
2022/04/29 00:08:30;;;;;;;;;34.75;29.75;;;;;;;;5051337;28;47273;-70
2022/04/29 00:10:55;;;;;;;;;30.75;28.25;;;;;;;;5048994;28;45397;-70
2022/04/29 00:13:20;;;;;;;;;29.50;25.75;;;;;;;;5052570;28;45506;-70
2022/04/29 00:15:45;;;;;;;;;31.25;28.75;;;;;;;;5053162;28;45447;-70
2022/04/29 00:18:11;;;;;;;;;29.25;29.00;;;;;;;;5053152;28;45967;-70
2022/04/29 00:20:36;;;;;;;;;32.50;27.75;;;;;;;;5054854;28;45529;-69
2022/04/29 00:23:01;;;;;;;;;31.25;30.00;;;;;;;;5053231;28;45466;-71
2022/04/29 00:25:27;;;;;;;;;33.75;29.00;;;;;;;;5052909;28;45287;-71
2022/04/29 00:27:52;;;;;;;;;39.75;32.00;;;;;;;;5052160;28;47069;-70
2022/04/29 00:30:18;;;;;;;;;32.50;29.75;;;;;;;;5052993;28;46037;-71
2022/04/29 00:32:43;;;;;;;;;32.25;29.00;;;;;;;;5049668;28;45391;-70
2022/04/29 00:35:09;;;;;;;;;37.75;30.50;;;;;;;;5052507;28;45493;-70
2022/04/29 00:37:44;;;;;;;;;34.25;29.00;;;;;;;;5052938;28;45436;-70
2022/04/29 00:40:13;;;;;;;;;33.50;30.25;;;;;;;;5053091;28;45435;-70
2022/04/29 00:42:38;;;;;;;;;36.25;31.50;;;;;;;;5053299;28;45432;-71
2022/04/29 00:45:04;;;;;;;;;39.75;32.50;;;;;;;;5053450;28;45444;-71
2022/04/29 00:47:29;;;;;;;;;35.00;31.75;;;;;;;;5041973;28;46128;-70
2022/04/29 00:49:54;;;;;;;;;38.75;34.50;;;;;;;;5048309;28;45586;-71
2022/04/29 00:52:20;;;;;;;;;37.25;29.50;;;;;;;;5053061;28;45492;-70
2022/04/29 00:54:50;;;;;;;;;39.50;32.50;;;;;;;;5053052;28;45405;-70
2022/04/29 00:57:19;;;;;;;;;36.50;31.00;;;;;;;;5052863;28;47130;-70
2022/04/29 00:59:52;;;;;;;;;31.00;30.00;;;;;;;;5053687;28;45432;-70
2022/04/29 01:02:19;;;;;;;;;31.00;25.25;;;;;;;;5052969;28;45396;-70
2022/04/29 01:04:52;;;;;;;;;33.25;30.25;;;;;;;;5054627;28;45320;-70
2022/04/29 01:07:17;;;;;;;;;31.50;30.25;;;;;;;;5054869;28;46434;-71
2022/04/29 01:09:42;;;;;;;;;31.50;26.25;;;;;;;;5055999;28;45511;-71
2022/04/29 01:12:07;;;;;;;;;28.75;27.25;;;;;;;;5056942;28;45280;-71
2022/04/29 01:14:34;;;;;;;;;43.25;36.25;;;;;;;;5058338;28;45387;-69
2022/04/29 01:16:59;;;;;;;;;34.50;29.75;;;;;;;;5055567;28;47175;-69
2022/04/29 01:19:25;;;;;;;;;33.50;31.75;;;;;;;;5056090;28;45565;-69
2022/04/29 01:21:51;;;;;;;;;34.00;30.75;;;;;;;;5056228;28;45359;-69
2022/04/29 01:24:16;;;;;;;;;32.75;30.00;;;;;;;;5054583;28;45564;-72
2022/04/29 01:26:41;;;;;;;;;30.50;29.75;;;;;;;;5056946;28;46207;-71
2022/04/29 01:29:07;;;;;;;;;38.75;34.25;;;;;;;;5054868;28;45430;-71
2022/04/29 01:31:33;;;;;;;;;42.50;32.75;;;;;;;;5055788;28;45526;-71
2022/04/29 01:33:58;;;;;;;;;35.50;30.75;;;;;;;;5055913;28;45455;-71
2022/04/29 01:36:24;;;;;;;;;34.25;32.00;;;;;;;;5055795;28;45957;-71
2022/04/29 01:38:49;;;;;;;;;40.50;31.75;;;;;;;;5056780;28;45391;-71
2022/04/29 01:41:14;;;;;;;;;39.50;32.50;;;;;;;;5053370;28;45653;-71
2022/04/29 01:43:39;;;;;;;;;31.25;28.75;;;;;;;;5055686;28;45447;-68
2022/04/29 01:46:04;;;;;;;;;33.75;31.75;;;;;;;;5055122;28;45462;-70
2022/04/29 01:48:30;;;;;;;;;36.00;30.50;;;;;;;;5055623;28;45598;-71
2022/04/29 01:50:55;;;;;;;;;40.00;33.00;;;;;;;;5057209;28;45435;-70
2022/04/29 01:53:21;;;;;;;;;37.25;32.00;;;;;;;;5056151;28;45387;-71
2022/04/29 01:55:46;;;;;;;;;34.50;32.00;;;;;;;;5054466;28;47157;-71
2022/04/29 01:58:11;;;;;;;;;32.25;31.25;;;;;;;;5055148;28;45479;-71
2022/04/29 02:00:37;;;;;;;;;38.25;33.50;;;;;;;;5053891;28;45432;-70
2022/04/29 02:03:02;;;;;;;;;27.25;26.50;;;;;;;;5056001;28;45425;-70
2022/04/29 02:05:27;;;;;;;;;35.25;31.75;;;;;;;;5056322;28;47157;-70
2022/04/29 02:07:52;;;;;;;;;31.25;30.00;;;;;;;;5054389;28;45391;-70
2022/04/29 02:10:17;;;;;;;;;35.00;31.75;;;;;;;;5055230;28;45445;-71
2022/04/29 02:12:43;;;;;;;;;34.50;28.75;;;;;;;;5043925;28;45477;-70
2022/04/29 02:15:08;;;;;;;;;34.50;32.75;;;;;;;;5053901;28;47361;-71
2022/04/29 02:17:34;;;;;;;;;34.00;28.75;;;;;;;;5057118;28;45701;-71
2022/04/29 02:19:59;;;;;;;;;39.25;34.50;;;;;;;;5054441;28;45463;-71
2022/04/29 02:22:24;;;;;;;;;37.50;28.75;;;;;;;;5055014;28;45467;-71
2022/04/29 02:24:50;;;;;;;;;33.25;30.25;;;;;;;;5054711;28;46001;-71
2022/04/29 02:27:15;;;;;;;;;35.75;33.50;;;;;;;;5054671;28;45531;-71
2022/04/29 02:29:40;;;;;;;;;35.00;32.00;;;;;;;;5056619;28;45487;-71
2022/04/29 02:32:05;;;;;;;;;37.25;31.00;;;;;;;;5054811;28;45536;-71
2022/04/29 02:34:31;;;;;;;;;41.00;32.25;;;;;;;;5052768;28;46211;-70
2022/04/29 02:36:56;;;;;;;;;34.00;31.75;;;;;;;;5054644;28;45752;-70
2022/04/29 02:39:22;;;;;;;;;37.25;32.50;;;;;;;;5053386;28;45349;-71
2022/04/29 02:41:47;;;;;;;;;36.75;27.75;;;;;;;;5056699;28;45578;-70
2022/04/29 02:44:13;;;;;;;;;39.25;34.25;;;;;;;;5054066;28;45411;-70
2022/04/29 02:47:06;;;;;;;;;35.25;31.50;;;;;;;;5054491;28;45497;-70
2022/04/29 02:49:26;;;;;;;;;36.50;32.75;;;;;;;;5052042;28;45462;-70
2022/04/29 02:51:51;;;;;;;;;41.75;35.00;;;;;;;;5054606;28;45581;-70
2022/04/29 02:54:17;;;;;;;;;37.25;32.25;;;;;;;;5054503;28;47141;-70
2022/04/29 02:56:42;;;;;;;;;44.25;34.00;;;;;;;;5056249;28;45395;-70
2022/04/29 02:59:07;;;;;;;;;37.50;33.25;;;;;;;;5053893;28;45857;-70
2022/04/29 03:01:33;;;;;;;;;37.25;32.00;;;;;;;;5054400;28;45542;-71
2022/04/29 03:03:59;;;;;;;;;37.00;32.75;;;;;;;;5053175;28;46079;-70
2022/04/29 03:06:24;;;;;;;;;40.00;32.75;;;;;;;;5054087;28;45488;-70
2022/04/29 03:08:49;;;;;;;;;36.25;32.00;;;;;;;;5056581;28;45459;-70
2022/04/29 03:11:15;;;;;;;;;44.00;37.25;;;;;;;;5054042;28;45564;-70
2022/04/29 03:13:40;;;;;;;;;42.25;34.50;;;;;;;;5053838;28;45470;-70
2022/04/29 03:16:05;;;;;;;;;35.25;30.25;;;;;;;;5053789;28;45287;-70
2022/04/29 03:18:30;;;;;;;;;35.25;31.00;;;;;;;;5055038;28;45558;-69
2022/04/29 03:20:58;;;;;;;;;37.75;32.75;;;;;;;;5055274;28;45485;-70
2022/04/29 03:23:24;;;;;;;;;41.75;31.25;;;;;;;;5054633;28;46281;-70
2022/04/29 03:25:49;;;;;;;;;39.25;32.75;;;;;;;;5055431;28;45290;-70
2022/04/29 03:28:15;;;;;;;;;38.50;32.75;;;;;;;;5054546;28;45493;-70
2022/04/29 03:30:41;;;;;;;;;38.25;32.50;;;;;;;;5054205;28;45351;-70
2022/04/29 03:33:07;;;;;;;;;45.75;32.75;;;;;;;;5052531;28;47184;-69
2022/04/29 03:35:37;;;;;;;;;38.25;33.25;;;;;;;;5053880;28;45427;-69
2022/04/29 03:38:02;;;;;;;;;40.50;33.25;;;;;;;;5053709;28;45429;-69
2022/04/29 03:40:28;;;;;;;;;44.25;35.75;;;;;;;;5053728;28;45361;-69
2022/04/29 03:42:54;;;;;;;;;34.50;31.25;;;;;;;;5053270;28;46274;-69
2022/04/29 03:45:23;;;;;;;;;38.00;32.75;;;;;;;;5052538;28;45497;-69
2022/04/29 03:47:48;;;;;;;;;40.00;33.75;;;;;;;;5055933;28;45371;-69
2022/04/29 03:50:13;;;;;;;;;39.50;33.50;;;;;;;;5053451;28;45308;-69
2022/04/29 03:52:49;;;;;;;;;41.25;34.25;;;;;;;;5053135;28;46335;-69
2022/04/29 03:55:14;;;;;;;;;33.25;25.75;;;;;;;;5053282;28;45372;-69
2022/04/29 03:57:40;;;;;;;;;42.25;33.00;;;;;;;;5053054;28;45496;-69
2022/04/29 04:00:08;;;;;;;;;35.25;32.00;;;;;;;;5045331;28;45342;-69
2022/04/29 04:02:33;;;;;;;;;39.50;34.75;;;;;;;;5053363;28;46204;-69
2022/04/29 04:04:58;;;;;;;;;41.25;33.25;;;;;;;;5053314;28;45407;-69
2022/04/29 04:07:24;;;;;;;;;42.25;35.75;;;;;;;;5053201;28;45427;-70
2022/04/29 04:09:49;;;;;;;;;45.25;36.50;;;;;;;;5045166;28;45535;-69
2022/04/29 04:12:15;;;;;;;;;40.00;34.00;;;;;;;;5051667;28;46113;-69
2022/04/29 04:14:40;;;;;;;;;39.25;34.00;;;;;;;;5053801;28;45284;-69
2022/04/29 04:17:05;;;;;;;;;38.50;33.50;;;;;;;;5052189;28;45480;-69
2022/04/29 04:19:30;;;;;;;;;42.50;34.50;;;;;;;;5052912;28;45479;-70
2022/04/29 04:21:56;;;;;;;;;35.50;33.50;;;;;;;;5036018;28;46315;-69
2022/04/29 04:24:21;;;;;;;;;45.25;35.00;;;;;;;;5052883;28;45394;-69
2022/04/29 04:26:46;;;;;;;;;46.00;36.00;;;;;;;;5054259;28;45343;-69
2022/04/29 04:29:11;;;;;;;;;47.00;35.25;;;;;;;;5052430;28;45190;-70
2022/04/29 04:31:37;;;;;;;;;38.50;30.75;;;;;;;;5036676;28;45577;-69
2022/04/29 04:34:49;;;;;;;;;38.50;32.25;;;;;;;;5052688;28;45294;-70
2022/04/29 04:36:54;;;;;;;;;37.50;33.50;;;;;;;;5052716;28;45577;-70
2022/04/29 04:39:20;;;;;;;;;34.00;30.00;;;;;;;;5054368;28;45595;-70
2022/04/29 04:41:45;;;;;;;;;37.50;33.25;;;;;;;;5057362;28;45367;-70
2022/04/29 04:44:10;;;;;;;;;35.75;32.00;;;;;;;;5056110;28;45407;-69
2022/04/29 04:46:38;;;;;;;;;37.75;30.75;;;;;;;;5055872;28;45456;-69
2022/04/29 04:49:03;;;;;;;;;36.25;32.75;;;;;;;;5056138;28;45481;-69
2022/04/29 04:51:29;;;;;;;;;39.50;33.00;;;;;;;;5056009;28;45513;-69
2022/04/29 04:53:54;;;;;;;;;40.50;33.00;;;;;;;;5052839;28;45381;-73
2022/04/29 04:56:19;;;;;;;;;42.50;35.00;;;;;;;;5054461;28;45435;-72
2022/04/29 04:58:44;;;;;;;;;39.25;33.25;;;;;;;;5052727;28;45556;-71
2022/04/29 05:01:09;;;;;;;;;38.00;33.00;;;;;;;;5044974;28;45931;-70
2022/04/29 05:03:34;;;;;;;;;39.75;32.75;;;;;;;;5055465;28;45344;-70
2022/04/29 05:06:00;;;;;;;;;40.25;32.75;;;;;;;;5056667;28;45341;-70
2022/04/29 05:08:25;;;;;;;;;36.00;31.25;;;;;;;;5056455;28;45661;-71
2022/04/29 05:10:50;;;;;;;;;33.75;33.75;;;;;;;;5054191;28;46991;-71
2022/04/29 05:13:16;;;;;;;;;35.00;33.50;;;;;;;;5056284;28;45545;-71
2022/04/29 05:15:42;;;;;;;;;38.25;31.00;;;;;;;;5056764;28;45935;-71
2022/04/29 05:18:08;;;;;;;;;37.00;32.75;;;;;;;;5051791;28;45445;-71
2022/04/29 05:20:33;;;;;;;;;37.75;32.00;;;;;;;;5039564;28;47063;-73
2022/04/29 05:22:58;;;;;;;;;39.25;34.00;;;;;;;;5041137;28;45464;-72
2022/04/29 05:25:23;;;;;;;;;39.00;32.25;;;;;;;;5040359;28;45919;-72
2022/04/29 05:27:49;;;;;;;;;37.75;32.75;;;;;;;;5054603;28;45324;-73
2022/04/29 05:30:14;;;;;;;;;38.50;30.00;;;;;;;;5055093;28;46138;-72
2022/04/29 05:32:39;;;;;;;;;32.75;31.00;;;;;;;;5056802;28;45400;-70
2022/04/29 05:35:05;;;;;;;;;40.00;33.25;;;;;;;;5055061;28;45346;-70
2022/04/29 05:37:31;;;;;;;;;43.75;35.75;;;;;;;;5053665;28;45506;-71
2022/04/29 05:42:40;;;;;;;;;36.25;29.00;;;;;;;;5054263;28;45348;-70
2022/04/29 05:45:06;;;;;;;;;37.25;32.25;;;;;;;;5038854;28;45500;-70
2022/04/29 05:47:31;;;;;;;;;39.00;33.50;;;;;;;;5052874;28;45293;-70
2022/04/29 05:49:56;;;;;;;;;31.50;26.50;;;;;;;;5048946;28;45546;-70
2022/04/29 05:52:22;;;;;;;;;39.75;35.25;;;;;;;;5054074;28;45219;-70
2022/04/29 05:54:47;;;;;;;;;39.75;35.50;;;;;;;;5054744;28;45514;-70
2022/04/29 05:57:12;;;;;;;;;47.00;36.00;;;;;;;;5054554;28;45486;-71
2022/04/29 05:59:37;;;;;;;;;35.75;33.00;;;;;;;;5055499;28;47154;-71
2022/04/29 06:02:03;;;;;;;;;40.00;33.50;;;;;;;;5040735;28;46002;-70
2022/04/29 06:04:28;;;;;;;;;37.50;31.50;;;;;;;;5052227;28;45586;-70
2022/04/29 06:06:53;;;;;;;;;41.50;34.75;;;;;;;;5053014;28;45493;-70
2022/04/29 06:09:18;;;;;;;;;37.25;33.00;;;;;;;;5054346;28;47245;-69
2022/04/29 06:11:45;;;;;;;;;37.00;31.25;;;;;;;;5056424;28;45296;-70
2022/04/29 06:14:10;;;;;;;;;40.00;32.50;;;;;;;;5053768;28;45579;-68
2022/04/29 06:16:36;;;;;;;;;35.25;31.50;;;;;;;;5054294;28;45518;-68
2022/04/29 06:19:01;;;;;;;;;40.75;33.00;;;;;;;;5054200;28;45477;-69
2022/04/29 06:21:26;;;;;;;;;39.00;33.75;;;;;;;;5034753;28;45442;-69
2022/04/29 06:23:51;;;;;;;;;34.75;32.50;;;;;;;;5054765;28;45336;-69
2022/04/29 06:26:16;;;;;;;;;40.00;34.00;;;;;;;;5053918;28;45539;-70
2022/04/29 06:28:42;;;;;;;;;41.00;34.25;;;;;;;;5053454;28;46123;-70
2022/04/29 06:31:07;;;;;;;;;37.00;32.50;;;;;;;;5052040;28;45485;-70
2022/04/29 06:33:33;;;;;;;;;36.25;32.00;;;;;;;;5049490;28;45494;-70
2022/04/29 06:36:01;;;;;;;;;38.50;30.00;;;;;;;;5054556;28;45480;-69
2022/04/29 06:38:27;;;;;;;;;45.50;34.25;;;;;;;;5056715;28;47378;-69
2022/04/29 06:40:52;;;;;;;;;43.75;36.00;;;;;;;;5057262;28;45457;-71
2022/04/29 06:43:18;;;;;;;;;44.25;36.50;;;;;;;;5058937;28;45198;-71
2022/04/29 06:45:43;;;;;;;;;43.75;36.50;;;;;;;;5053830;28;45416;-70
2022/04/29 06:48:08;;;;;;;;;43.25;34.75;;;;;;;;5053404;28;46437;-69
2022/04/29 06:50:34;;;;;;;;;42.75;35.25;;;;;;;;5041428;28;45382;-69
2022/04/29 06:52:59;;;;;;;;;44.00;37.75;;;;;;;;5053826;28;45425;-69
2022/04/29 06:55:24;;;;;;;;;43.75;36.25;;;;;;;;5053031;28;45454;-69
2022/04/29 06:57:50;;;;;;;;;42.50;35.75;;;;;;;;5053178;28;46191;-70
2022/04/29 07:00:15;;;;;;;;;45.25;36.00;;;;;;;;5053090;28;45386;-68
2022/04/29 07:02:41;;;;;;;;;44.25;37.50;;;;;;;;5055379;28;45471;-68
2022/04/29 07:05:07;;;;;;;;;46.25;38.25;;;;;;;;5053480;28;45455;-69
2022/04/29 07:07:33;;;;;;;;;45.75;35.25;;;;;;;;5053429;28;45934;-70
2022/04/29 07:09:58;;;;;;;;;40.50;35.00;;;;;;;;5052572;28;45386;-70
2022/04/29 07:12:23;;;;;;;;;46.50;37.75;;;;;;;;5053616;28;45522;-69
2022/04/29 07:14:51;;;;;;;;;45.50;37.75;;;;;;;;5054852;28;45288;-70
2022/04/29 07:17:17;;;;;;;;;37.25;31.75;;;;;;;;5051551;28;46938;-70
2022/04/29 07:19:42;;;;;;;;;42.50;34.75;;;;;;;;5052253;28;45755;-70
2022/04/29 07:22:07;;;;;;;;;46.00;38.00;;;;;;;;5051782;28;45494;-69
2022/04/29 07:24:33;;;;;;;;;46.75;36.50;;;;;;;;5053168;28;45229;-70
2022/04/29 07:26:58;;;;;;;;;44.75;35.75;;;;;;;;5054041;28;45573;-70
2022/04/29 07:29:23;;;;;;;;;51.50;42.25;;;;;;;;5053899;28;45275;-70
2022/04/29 07:31:49;;;;;;;;;45.25;36.75;;;;;;;;5046773;28;46370;-68
2022/04/29 07:34:14;;;;;;;;;44.00;34.50;;;;;;;;5052088;28;45566;-69
2022/04/29 07:42:07;;;;;;;;;50.25;39.25;;;;;;;;5052729;28;45776;-70
2022/04/29 07:44:33;;;;;;;;;47.50;39.75;;;;;;;;5054932;28;45372;-70
2022/04/29 07:46:58;;;;;;;;;50.75;39.75;;;;;;;;5041557;28;47245;-70
2022/04/29 07:49:23;;;;;;;;;53.75;42.25;;;;;;;;5050937;28;45575;-68
2022/04/29 07:51:49;;;;;;;;;52.75;41.50;;;;;;;;5052515;28;45338;-69
2022/04/29 07:54:15;;;;;;;;;52.50;42.00;;;;;;;;5052300;28;45224;-69
2022/04/29 07:56:40;;;;;;;;;50.50;42.00;;;;;;;;5053953;28;47421;-70
2022/04/29 07:59:05;;;;;;;;;53.75;42.75;;;;;;;;5053114;28;45349;-70
2022/04/29 08:01:30;;;;;;;;;53.25;44.00;;;;;;;;5052126;28;45567;-70
2022/04/29 08:03:58;;;;;;;;;51.25;40.25;;;;;;;;5052140;28;45545;-70
2022/04/29 08:06:23;;;;;;;;;48.75;38.50;;;;;;;;5052378;28;47188;-70
2022/04/29 08:08:48;;;;;;;;;52.75;43.25;;;;;;;;5054041;28;45506;-70
2022/04/29 08:11:15;;;;;;;;;52.75;43.75;;;;;;;;5052187;28;45412;-70
2022/04/29 08:13:44;;;;;;;;;52.75;42.25;;;;;;;;5051210;28;45583;-70
2022/04/29 08:16:10;;;;;;;;;53.00;42.75;;;;;;;;5051727;28;45513;-68
2022/04/29 08:18:35;;;;;;;;;54.50;43.75;;;;;;;;5051494;28;45479;-67
2022/04/29 08:21:00;;;;;;;;;51.00;39.75;;;;;;;;5052380;28;45530;-68
2022/04/29 08:23:25;;;;;;;;;54.00;43.50;;;;;;;;5053289;28;45489;-69
2022/04/29 08:25:51;;;;;;;;;50.75;43.00;;;;;;;;5052166;28;46093;-69
2022/04/29 08:28:16;;;;;;;;;55.75;44.50;;;;;;;;5052010;28;45349;-69
2022/04/29 08:30:41;;;;;;;;;54.50;44.75;;;;;;;;5051971;28;45457;-69
2022/04/29 08:33:12;;;;;;;;;54.00;44.00;;;;;;;;5051564;28;45463;-69
2022/04/29 08:35:39;;;;;;;;;50.75;42.00;;;;;;;;5037732;28;47314;-69
2022/04/29 08:38:08;;;;;;;;;58.00;43.50;;;;;;;;5052112;28;45629;-69
2022/04/29 08:40:34;;;;;;;;;57.75;44.25;;;;;;;;5051719;28;45573;-69
2022/04/29 08:43:03;;;;;;;;;53.00;42.00;;;;;;;;5050790;28;45439;-69
2022/04/29 08:45:28;;;;;;;;;47.25;40.00;;;;;;;;5051801;28;45470;-69
2022/04/29 08:47:54;;;;;;;;;53.00;44.00;;;;;;;;5054485;28;45329;-69
2022/04/29 08:50:20;;;;;;;;;54.25;41.50;;;;;;;;5050948;28;45424;-69
2022/04/29 08:52:46;;;;;;;;;49.00;40.50;;;;;;;;5051891;28;45468;-71
2022/04/29 09:00:43;;;;;;;;;50.25;39.50;;;;;;;;5051616;28;45557;-70
2022/04/29 09:03:13;;;;;;;;;52.50;40.50;;;;;;;;5051709;28;45357;-72
2022/04/29 09:05:39;;;;;;;;;56.00;39.25;;;;;;;;5040149;28;46944;-72
2022/04/29 09:08:05;;;;;;;;;51.25;40.25;;;;;;;;5051200;28;45539;-79
2022/04/29 09:10:35;;;;;;;;;51.00;43.00;;;;;;;;5050289;28;45462;-71
2022/04/29 09:13:19;;;;;;;;;51.50;43.25;;;;;;;;5046768;28;46070;-73
2022/04/29 09:15:48;;;;;;;;;56.25;44.50;;;;;;;;5050608;28;46940;-72
2022/04/29 09:18:15;;;;;;;;;49.75;39.00;;;;;;;;5049478;28;45483;-72
2022/04/29 09:20:40;;;;;;;;;50.00;40.75;;;;;;;;5039932;28;45582;-72
2022/04/29 09:23:08;;;;;;;;;43.75;38.00;;;;;;;;5039629;28;45370;-71
2022/04/29 09:25:36;;;;;;;;;56.00;41.00;;;;;;;;5042597;28;46103;-71
2022/04/29 09:28:03;;;;;;;;;51.00;39.25;;;;;;;;5051345;28;45585;-72
2022/04/29 09:30:31;;;;;;;;;45.75;35.50;;;;;;;;5041758;28;45593;-72
2022/04/29 09:32:56;;;;;;;;;46.00;37.75;;;;;;;;5055613;28;45456;-72
2022/04/29 09:35:41;;;;;;;;;54.75;43.00;;;;;;;;5023766;28;46386;-72
2022/04/29 09:40:52;;;;;;;;;50.00;40.50;;;;;;;;5053049;28;45561;-72
2022/04/29 09:43:29;;;;;;;;;48.25;35.25;;;;;;;;5035888;28;45382;-72
2022/04/29 09:46:07;;;;;;;;;41.50;36.25;;;;;;;;5051749;28;46541;-71
2022/04/29 09:48:49;;;;;;;;;46.25;38.00;;;;;;;;5045611;28;45621;-71
2022/04/29 09:51:14;;;;;;;;;38.25;35.50;;;;;;;;5038239;28;45402;-72
2022/04/29 09:53:39;;;;;;;;;42.75;38.00;;;;;;;;5041275;28;45372;-70
2022/04/29 09:56:12;;;;;;;;;52.50;41.25;;;;;;;;5052338;28;46714;-72
2022/04/29 09:58:37;;;;;;;;;49.75;41.00;;;;;;;;5050550;28;45476;-71
2022/04/29 10:01:04;;;;;;;;;44.00;33.50;;;;;;;;5050918;28;46154;-72
2022/04/29 10:03:29;;;;;;;;;37.00;32.25;;;;;;;;5051372;28;45433;-71
2022/04/29 10:05:55;;;;;;;;;39.00;34.75;;;;;;;;5052832;28;46487;-70
2022/04/29 10:08:24;;;;;;;;;42.25;37.00;;;;;;;;5041297;28;45440;-72
2022/04/29 10:10:49;;;;;;;;;47.75;37.25;;;;;;;;5057201;28;45510;-72
2022/04/29 10:13:18;;;;;;;;;41.50;35.25;;;;;;;;5049287;28;47904;-74
2022/04/29 10:15:44;;;;;;;;;51.50;40.25;;;;;;;;5051577;28;46261;-73
2022/04/29 10:23:38;;;;;;;;;46.00;36.00;;;;;;;;5054104;28;45672;-71
2022/04/29 10:26:03;;;;;;;;;44.75;37.75;;;;;;;;5032367;28;46295;-71
2022/04/29 10:28:29;;;;;;;;;44.75;34.50;;;;;;;;5047866;28;45697;-71
2022/04/29 10:30:59;;;;;;;;;42.25;36.75;;;;;;;;5053884;28;45344;-70
2022/04/29 10:33:24;;;;;;;;;48.00;38.75;;;;;;;;5037173;28;45298;-71
2022/04/29 10:35:50;;;;;;;;;39.00;32.50;;;;;;;;5040975;28;47431;-70
2022/04/29 10:38:15;;;;;;;;;38.50;36.00;;;;;;;;5053191;28;45332;-72
2022/04/29 10:40:41;;;;;;;;;49.25;37.25;;;;;;;;5053620;28;45517;-72
2022/04/29 10:43:07;;;;;;;;;38.25;33.75;;;;;;;;5053196;28;45735;-73
2022/04/29 10:45:33;;;;;;;;;48.00;37.50;;;;;;;;5053378;28;47310;-71
2022/04/29 10:47:58;;;;;;;;;41.75;35.50;;;;;;;;5052738;28;45517;-71
2022/04/29 10:50:29;;;;;;;;;37.25;31.75;;;;;;;;5053873;28;45291;-71
2022/04/29 10:53:04;;;;;;;;;41.50;37.00;;;;;;;;5053346;28;45533;-70
2022/04/29 10:55:29;;;;;;;;;40.00;34.00;;;;;;;;5053233;28;47090;-70
2022/04/29 10:58:00;;;;;;;;;36.50;33.25;;;;;;;;5053037;28;45414;-70
2022/04/29 11:00:27;;;;;;;;;42.00;36.00;;;;;;;;5035958;28;45250;-70
2022/04/29 11:02:53;;;;;;;;;44.50;34.50;;;;;;;;5055066;28;45494;-70
2022/04/29 11:05:37;;;;;;;;;39.50;34.00;;;;;;;;5052924;28;46973;-69
2022/04/29 11:08:12;;;;;;;;;43.25;35.50;;;;;;;;5052543;28;45296;-69
2022/04/29 11:10:56;;;;;;;;;37.75;29.50;;;;;;;;5052218;28;45306;-71
2022/04/29 11:13:23;;;;;;;;;36.50;31.50;;;;;;;;5052861;28;45416;-71
2022/04/29 11:15:49;;;;;;;;;30.00;28.50;;;;;;;;5052205;28;46097;-71
2022/04/29 11:18:14;;;;;;;;;41.25;34.25;;;;;;;;5052600;28;45537;-68
2022/04/29 11:20:42;;;;;;;;;32.75;31.00;;;;;;;;5054755;28;45446;-69
2022/04/29 11:25:59;;;;;;;;;38.50;34.75;;;;;;;;5051991;28;45745;-70
2022/04/29 11:28:25;;;;;;;;;32.75;30.50;;;;;;;;5052167;28;45549;-71
2022/04/29 11:30:58;;;;;;;;;39.50;33.50;;;;;;;;5052595;28;45584;-71
2022/04/29 11:33:24;;;;;;;;;40.75;33.00;;;;;;;;5037397;28;45819;-70
2022/04/29 11:35:53;;;;;;;;;35.50;31.00;;;;;;;;5054672;28;46525;-69
2022/04/29 11:38:19;;;;;;;;;30.00;30.00;;;;;;;;5052926;28;45326;-69
2022/04/29 11:40:44;;;;;;;;;32.50;29.25;;;;;;;;5051927;28;45307;-71
2022/04/29 11:43:10;;;;;;;;;28.25;26.00;;;;;;;;5037043;28;45659;-71
2022/04/29 11:45:36;;;;;;;;;27.50;24.50;;;;;;;;5052009;28;46597;-70
2022/04/29 11:48:05;;;;;;;;;25.75;24.00;;;;;;;;5052582;28;45817;-70
2022/04/29 11:50:31;;;;;;;;;34.75;32.25;;;;;;;;5050808;28;46416;-71
2022/04/29 11:53:02;;;;;;;;;38.00;34.25;;;;;;;;5052126;28;45415;-70
2022/04/29 11:55:27;;;;;;;;;30.50;26.50;;;;;;;;5052250;28;46049;-70
2022/04/29 11:57:55;;;;;;;;;30.50;27.25;;;;;;;;5052246;28;45460;-70
2022/04/29 12:00:25;;;;;;;;;28.25;26.25;;;;;;;;5052576;28;45363;-70
2022/04/29 12:02:50;;;;;;;;;31.00;29.50;;;;;;;;5049801;28;45403;-71
2022/04/29 12:05:16;;;;;;;;;31.50;31.00;;;;;;;;5051550;28;46315;-70
2022/04/29 12:07:45;;;;;;;;;32.25;28.00;;;;;;;;5051975;28;45325;-70
2022/04/29 12:10:17;;;;;;;;;32.75;26.00;;;;;;;;5036442;28;47777;-70
2022/04/29 12:12:43;;;;;;;;;33.50;29.25;;;;;;;;5051500;28;45560;-71
2022/04/29 12:15:11;;;;;;;;;32.25;29.25;;;;;;;;5051999;28;46031;-71
2022/04/29 12:17:38;;;;;;;;;30.25;25.50;;;;;;;;5053815;28;45378;-71
2022/04/29 12:20:04;;;;;;;;;34.00;29.75;;;;;;;;5051772;28;45391;-70
2022/04/29 12:22:31;;;;;;;;;27.75;24.75;;;;;;;;5051886;28;45587;-71
2022/04/29 12:24:56;;;;;;;;;28.00;24.75;;;;;;;;5051000;28;45418;-71
2022/04/29 12:27:30;;;;;;;;;24.75;23.25;;;;;;;;5051628;28;45523;-71
2022/04/29 12:35:29;;;;;;;;;30.25;26.00;;;;;;;;5052915;28;45434;-70
2022/04/29 12:37:54;;;;;;;;;26.50;24.50;;;;;;;;5051334;28;45449;-70
2022/04/29 12:40:30;;;;;;;;;30.00;26.50;;;;;;;;5051886;28;45836;-70
2022/04/29 12:43:11;;;;;;;;;23.50;22.25;;;;;;;;5052147;28;45558;-70
2022/04/29 12:45:36;;;;;;;;;22.25;19.00;;;;;;;;5037843;28;47581;-70
2022/04/29 12:48:05;;;;;;;;;22.00;22.00;;;;;;;;5052889;28;45216;-70
2022/04/29 12:50:33;;;;;;;;;24.00;22.00;;;;;;;;5053373;28;45352;-71
2022/04/29 12:53:03;;;;;;;;;23.00;20.50;;;;;;;;5051128;28;45485;-70
2022/04/29 12:55:32;;;;;;;;;22.75;20.50;;;;;;;;5051464;28;45260;-70
2022/04/29 12:58:01;;;;;;;;;24.50;22.75;;;;;;;;5051501;28;45497;-70
2022/04/29 13:00:27;;;;;;;;;24.50;21.75;;;;;;;;5054149;28;45241;-71
2022/04/29 13:03:03;;;;;;;;;25.50;22.25;;;;;;;;5057426;28;45348;-70
2022/04/29 13:05:29;;;;;;;;;21.00;20.00;;;;;;;;5056588;28;47195;-70
2022/04/29 13:07:54;;;;;;;;;23.00;20.50;;;;;;;;5054444;28;45571;-70
2022/04/29 13:10:19;;;;;;;;;19.50;18.75;;;;;;;;5055144;28;45483;-70
2022/04/29 13:12:45;;;;;;;;;21.75;19.50;;;;;;;;5055237;28;45331;-70
2022/04/29 13:15:11;;;;;;;;;22.00;21.25;;;;;;;;5054908;28;45451;-70
2022/04/29 13:17:37;;;;;;;;;23.00;18.75;;;;;;;;5056969;28;45405;-70
2022/04/29 13:20:02;;;;;;;;;20.50;18.50;;;;;;;;5054568;28;45823;-71
2022/04/29 13:22:27;;;;;;;;;21.50;18.00;;;;;;;;5053021;28;45360;-71
2022/04/29 13:24:52;;;;;;;;;64.50;50.75;;;;;;;;5054580;28;47615;-71
2022/04/29 13:27:19;;;;;;;;;22.50;20.25;;;;;;;;5054410;28;45564;-71
2022/04/29 13:29:44;;;;;;;;;20.75;18.00;;;;;;;;5056398;28;45320;-71
2022/04/29 13:32:09;;;;;;;;;18.25;17.00;;;;;;;;5054573;28;45528;-71
2022/04/29 13:34:35;;;;;;;;;14.75;13.25;;;;;;;;5054420;28;46007;-71
2022/04/29 13:37:00;;;;;;;;;13.50;13.50;;;;;;;;5054303;28;45502;-71
2022/04/29 13:39:25;;;;;;;;;14.25;13.25;;;;;;;;5054789;28;45612;-71
2022/04/29 13:41:50;;;;;;;;;17.50;14.75;;;;;;;;5056640;28;45413;-71
2022/04/29 13:44:15;;;;;;;;;12.75;12.75;;;;;;;;5054179;28;46265;-71
2022/04/29 13:46:41;;;;;;;;;14.25;12.75;;;;;;;;5054024;28;45632;-70
2022/04/29 13:49:06;;;;;;;;;15.00;13.50;;;;;;;;5054613;28;45415;-69
2022/04/29 13:51:31;;;;;;;;;16.25;14.00;;;;;;;;5054050;28;45435;-70
2022/04/29 13:53:57;;;;;;;;;10.75;10.75;;;;;;;;5055150;28;46233;-72
2022/04/29 13:56:22;;;;;;;;;18.50;17.00;;;;;;;;5054044;28;45311;-71
2022/04/29 13:58:47;;;;;;;;;15.75;14.75;;;;;;;;5054287;28;45340;-71
2022/04/29 14:01:12;;;;;;;;;19.50;18.50;;;;;;;;5053997;28;45440;-70
2022/04/29 14:03:38;;;;;;;;;17.25;17.25;;;;;;;;5054219;28;46742;-71
2022/04/29 14:06:04;;;;;;;;;16.00;16.00;;;;;;;;5054139;28;45261;-71
2022/04/29 14:08:29;;;;;;;;;16.25;14.50;;;;;;;;5055429;28;45309;-71
2022/04/29 14:10:55;;;;;;;;;20.75;17.75;;;;;;;;5052832;28;45284;-71
2022/04/29 14:13:20;;;;;;;;;12.50;11.25;;;;;;;;5053537;28;46280;-71
2022/04/29 14:15:45;;;;;;;;;20.25;19.00;;;;;;;;5054353;28;45587;-71
2022/04/29 14:18:11;;;;;;;;;13.75;12.75;;;;;;;;5054467;28;46968;-71
2022/04/29 14:20:36;;;;;;;;;15.50;15.00;;;;;;;;5055672;28;45344;-71
2022/04/29 14:23:01;;;;;;;;;15.25;14.25;;;;;;;;5052936;28;46235;-71
2022/04/29 14:25:27;;;;;;;;;15.00;13.75;;;;;;;;5052897;28;45439;-71
2022/04/29 14:27:53;;;;;;;;;14.75;12.50;;;;;;;;5053337;28;45531;-70
2022/04/29 14:30:18;;;;;;;;;19.00;17.75;;;;;;;;5053735;28;45339;-71
2022/04/29 14:32:43;;;;;;;;;14.75;14.75;;;;;;;;5055929;28;47091;-72
2022/04/29 14:35:10;;;;;;;;;16.50;16.50;;;;;;;;5053378;28;45415;-71
2022/04/29 14:37:36;;;;;;;;;17.00;15.75;;;;;;;;5053788;28;45285;-72
2022/04/29 14:40:04;;;;;;;;;21.00;17.75;;;;;;;;5053899;28;45419;-71
2022/04/29 14:42:30;;;;;;;;;14.75;13.75;;;;;;;;5053794;28;45701;-71